createdAt,value
2022-09-15T00:01:14.879Z,87.32
2022-09-15T00:05:26.773Z,87.36
2022-09-15T00:09:36.453Z,87.42
2022-09-15T00:13:45.891Z,87.45
2022-09-15T00:17:55.701Z,87.47
2022-09-15T00:22:03.708Z,87.63
2022-09-15T00:26:14.271Z,87.70
2022-09-15T00:30:21.873Z,87.60
2022-09-15T00:34:29.682Z,87.63
2022-09-15T00:38:38.481Z,87.68
2022-09-15T00:42:47.019Z,87.83
2022-09-15T00:47:17.675Z,87.75
2022-09-15T00:51:27.577Z,87.64
2022-09-15T00:55:37.354Z,87.47
2022-09-15T00:59:46.308Z,87.29
2022-09-15T01:03:54.013Z,87.21
2022-09-15T01:08:05.314Z,87.19
2022-09-15T01:12:13.392Z,87.22
2022-09-15T01:16:28.719Z,87.35
2022-09-15T01:21:06.024Z,87.54
2022-09-15T01:25:27.820Z,87.84
2022-09-15T01:30:04.956Z,88.29
2022-09-15T01:34:17.673Z,88.51
2022-09-15T01:38:54.527Z,88.55
2022-09-15T01:43:03.989Z,88.97
2022-09-15T01:47:13.767Z,89.32
2022-09-15T01:51:21.663Z,89.39
2022-09-15T01:55:37.229Z,89.44
2022-09-15T01:59:45.234Z,89.56
2022-09-15T02:03:56.719Z,89.67
2022-09-15T02:08:10.070Z,89.82
2022-09-15T02:12:22.199Z,89.89
2022-09-15T02:16:34.086Z,89.69
2022-09-15T02:20:49.431Z,89.55
2022-09-15T02:25:03.167Z,89.49
2022-09-15T02:29:15.167Z,89.41
2022-09-15T02:33:25.477Z,89.36
2022-09-15T02:37:33.067Z,89.25
2022-09-15T02:41:41.811Z,89.19
2022-09-15T02:45:50.179Z,89.19
2022-09-15T02:49:58.340Z,89.16
2022-09-15T02:54:06.214Z,89.28
2022-09-15T02:58:14.055Z,89.12
2022-09-15T03:02:22.235Z,89.35
2022-09-15T03:06:34.864Z,89.34
2022-09-15T03:10:42.501Z,89.19
2022-09-15T03:14:50.541Z,89.40
2022-09-15T03:18:59.928Z,89.10
2022-09-15T03:23:07.502Z,88.65
2022-09-15T03:27:15.072Z,88.31
2022-09-15T03:31:22.892Z,88.01
2022-09-15T03:35:30.598Z,88.10
2022-09-15T03:39:38.859Z,88.16
2022-09-15T03:43:47.541Z,88.33
2022-09-15T03:47:55.005Z,88.13
2022-09-15T03:52:03.326Z,88.35
2022-09-15T03:56:15.633Z,88.69
2022-09-15T04:00:25.498Z,88.50
2022-09-15T04:04:33.004Z,88.40
2022-09-15T04:08:42.038Z,88.19
2022-09-15T04:12:49.430Z,87.61
2022-09-15T04:16:58.145Z,87.01
2022-09-15T04:21:09.091Z,87.28
2022-09-15T04:25:17.434Z,87.46
2022-09-15T04:29:26.731Z,87.74
2022-09-15T04:33:35.244Z,87.98
2022-09-15T04:37:50.198Z,87.99
2022-09-15T04:42:01.266Z,87.84
2022-09-15T04:46:13.070Z,87.70
2022-09-15T04:50:21.683Z,87.88
2022-09-15T04:54:35.127Z,87.78
2022-09-15T04:58:45.838Z,87.66
2022-09-15T05:02:56.545Z,87.70
2022-09-15T05:07:03.938Z,87.61
2022-09-15T05:11:17.645Z,87.53
2022-09-15T05:15:31.917Z,87.48
2022-09-15T05:19:42.020Z,87.45
2022-09-15T05:23:52.976Z,87.28
2022-09-15T05:28:08.578Z,87.19
2022-09-15T05:32:20.472Z,87.01
2022-09-15T05:36:32.527Z,86.88
2022-09-15T05:40:46.762Z,86.69
2022-09-15T05:44:55.137Z,86.76
2022-09-15T05:49:12.547Z,86.70
2022-09-15T05:53:20.069Z,86.47
2022-09-15T05:57:36.254Z,86.38
2022-09-15T06:01:46.443Z,86.29
2022-09-15T06:06:01.608Z,86.22
2022-09-15T06:10:17.283Z,85.93
2022-09-15T06:14:27.453Z,85.62
2022-09-15T06:18:37.493Z,85.52
2022-09-15T06:22:50.782Z,84.81
2022-09-15T06:27:03.560Z,84.59
2022-09-15T06:31:17.528Z,84.59
2022-09-15T06:35:29.398Z,84.12
2022-09-15T06:39:43.265Z,83.95
2022-09-15T06:43:50.555Z,83.40
2022-09-15T06:48:24.491Z,83.02
2022-09-15T06:52:41.591Z,82.89
2022-09-15T06:56:51.645Z,82.93
2022-09-15T07:01:04.615Z,82.65
2022-09-15T07:05:18.328Z,82.33
2022-09-15T07:09:31.668Z,82.33
2022-09-15T07:13:39.685Z,82.04
2022-09-15T07:17:52.805Z,81.54
2022-09-15T07:21:59.778Z,81.31
2022-09-15T07:26:12.872Z,81.12
2022-09-15T07:30:20.610Z,80.20
2022-09-15T07:34:29.974Z,80.10
2022-09-15T07:38:49.425Z,79.88
2022-09-15T07:42:59.704Z,79.51
2022-09-15T07:47:14.767Z,79.12
2022-09-15T07:51:26.321Z,79.20
2022-09-15T07:55:36.207Z,78.87
2022-09-15T07:59:54.166Z,78.48
2022-09-15T08:04:06.427Z,78.10
2022-09-15T08:08:21.523Z,77.80
2022-09-15T08:12:36.228Z,77.18
2022-09-15T08:16:47.671Z,76.22
2022-09-15T08:21:02.814Z,75.97
2022-09-15T08:25:16.368Z,75.50
2022-09-15T08:29:27.809Z,75.12
2022-09-15T08:33:45.856Z,74.84
2022-09-15T08:37:58.006Z,74.21
2022-09-15T08:42:07.974Z,74.02
2022-09-15T08:46:22.022Z,73.65
2022-09-15T08:50:36.003Z,74.07
2022-09-15T08:54:43.926Z,74.68
2022-09-15T08:58:51.478Z,74.75
2022-09-15T09:03:42.563Z,73.47
2022-09-15T09:08:21.172Z,72.24
2022-09-15T09:12:41.386Z,72.42
2022-09-15T09:17:09.778Z,72.30
2022-09-15T09:21:28.352Z,72.57
2022-09-15T09:25:39.017Z,72.36
2022-09-15T09:29:52.258Z,71.80
2022-09-15T09:34:12.556Z,71.33
2022-09-15T09:38:24.447Z,71.26
2022-09-15T09:42:35.043Z,71.43
2022-09-15T09:46:46.827Z,71.15
2022-09-15T09:50:56.187Z,71.21
2022-09-15T09:55:22.082Z,70.27
2022-09-15T09:59:43.755Z,70.72
2022-09-15T10:03:53.270Z,70.23
2022-09-15T10:08:05.237Z,70.07
2022-09-15T10:12:32.727Z,69.74
2022-09-15T10:16:42.881Z,68.25
2022-09-15T10:20:54.370Z,68.47
2022-09-15T10:25:02.607Z,68.06
2022-09-15T10:29:29.303Z,67.85
2022-09-15T10:33:38.368Z,67.95
2022-09-15T10:37:59.803Z,67.66
2022-09-15T10:42:16.454Z,67.88
2022-09-15T10:46:29.570Z,68.18
2022-09-15T10:50:46.320Z,67.61
2022-09-15T10:55:04.133Z,67.68
2022-09-15T10:59:33.381Z,66.90
2022-09-15T11:03:53.554Z,67.15
2022-09-15T11:08:20.404Z,66.77
2022-09-15T11:12:39.390Z,66.75
2022-09-15T11:16:55.619Z,66.13
2022-09-15T11:21:23.705Z,66.13
2022-09-15T11:25:33.751Z,66.89
2022-09-15T11:29:53.441Z,67.02
2022-09-15T11:34:05.957Z,66.51
2022-09-15T11:38:27.036Z,66.46
2022-09-15T11:42:40.358Z,66.55
2022-09-15T11:47:02.921Z,66.20
2022-09-15T11:51:11.946Z,65.68
2022-09-15T11:55:25.175Z,65.54
2022-09-15T11:59:37.886Z,65.45
2022-09-15T12:03:50.152Z,65.29
2022-09-15T12:08:02.431Z,64.83
2022-09-15T12:12:12.843Z,64.68
2022-09-15T12:16:21.813Z,65.19
2022-09-15T12:20:31.886Z,65.11
2022-09-15T12:24:46.121Z,65.17
2022-09-15T12:29:02.581Z,65.62
2022-09-15T12:33:49.641Z,66.15
2022-09-15T12:37:58.471Z,66.52
2022-09-15T12:42:14.993Z,67.09
2022-09-15T12:46:23.502Z,67.07
2022-09-15T12:50:34.357Z,67.22
2022-09-15T12:54:46.582Z,67.41
2022-09-15T12:58:54.528Z,67.51
2022-09-15T13:03:02.171Z,67.50
2022-09-15T13:07:39.453Z,67.45
2022-09-15T13:11:48.871Z,67.42
2022-09-15T13:15:58.163Z,67.55
2022-09-15T13:20:16.029Z,67.40
2022-09-15T13:24:40.053Z,66.85
2022-09-15T13:28:48.758Z,65.42
2022-09-15T13:33:03.175Z,65.89
2022-09-15T13:42:32.963Z,64.57
2022-09-15T13:46:48.872Z,64.38
2022-09-15T13:51:00.770Z,63.70
2022-09-15T13:55:24.463Z,64.10
2022-09-15T13:59:33.978Z,63.21
2022-09-15T14:03:46.546Z,61.68
2022-09-15T14:08:01.395Z,61.26
2022-09-15T14:12:13.515Z,61.45
2022-09-15T14:16:29.841Z,61.91
2022-09-15T14:20:37.976Z,62.49
2022-09-15T14:24:45.403Z,63.29
2022-09-15T14:28:57.689Z,63.26
2022-09-15T14:33:07.121Z,63.10
2022-09-15T14:37:24.055Z,63.25
2022-09-15T14:41:41.076Z,63.59
2022-09-15T14:45:55.224Z,63.89
2022-09-15T14:50:16.251Z,63.70
2022-09-15T14:54:29.637Z,63.47
2022-09-15T14:58:38.859Z,63.52
2022-09-15T15:02:56.086Z,63.30
2022-09-15T15:07:08.592Z,63.07
2022-09-15T15:11:18.833Z,62.58
2022-09-15T15:15:28.554Z,62.33
2022-09-15T15:19:42.049Z,61.71
2022-09-15T15:23:49.592Z,61.79
2022-09-15T15:27:58.185Z,61.94
2022-09-15T15:32:12.092Z,61.58
2022-09-15T15:36:25.106Z,61.67
2022-09-15T15:40:37.690Z,61.90
2022-09-15T15:45:04.834Z,62.31
2022-09-15T15:49:14.034Z,62.63
2022-09-15T15:53:22.035Z,62.97
2022-09-15T15:57:33.219Z,63.30
2022-09-15T16:01:40.861Z,63.59
2022-09-15T16:05:52.007Z,63.88
2022-09-15T16:09:59.795Z,64.43
2022-09-15T16:14:10.054Z,64.78
2022-09-15T16:18:19.029Z,64.64
2022-09-15T16:22:26.516Z,64.93
2022-09-15T16:26:35.979Z,65.03
2022-09-15T16:30:43.667Z,65.23
2022-09-15T16:34:52.744Z,65.57
2022-09-15T16:39:00.194Z,65.55
2022-09-15T16:43:13.908Z,65.91
2022-09-15T16:47:21.595Z,66.28
2022-09-15T16:51:31.626Z,66.59
2022-09-15T16:55:42.953Z,66.85
2022-09-15T16:59:50.405Z,67.03
2022-09-15T17:03:58.693Z,67.20
2022-09-15T17:08:07.440Z,67.37
2022-09-15T17:12:15.598Z,67.61
2022-09-15T17:16:23.296Z,67.78
2022-09-15T17:20:33.750Z,68.06
2022-09-15T17:24:44.465Z,68.04
2022-09-15T17:28:52.511Z,67.52
2022-09-15T17:33:08.662Z,67.32
2022-09-15T17:37:18.759Z,67.23
2022-09-15T17:41:26.167Z,67.18
2022-09-15T17:45:37.141Z,67.59
2022-09-15T17:49:44.813Z,67.91
2022-09-15T17:53:55.380Z,68.33
2022-09-15T17:58:05.647Z,68.40
2022-09-15T18:02:20.465Z,68.43
2022-09-15T18:06:30.051Z,68.48
2022-09-15T18:10:38.574Z,68.36
2022-09-15T18:14:45.690Z,68.34
2022-09-15T18:18:53.632Z,68.44
2022-09-15T18:23:02.323Z,68.59
2022-09-15T18:27:09.735Z,68.64
2022-09-15T18:31:17.910Z,68.76
2022-09-15T18:35:26.011Z,68.99
2022-09-15T18:39:34.467Z,69.06
2022-09-15T18:43:42.437Z,69.38
2022-09-15T18:47:52.931Z,69.59
2022-09-15T18:52:02.567Z,69.77
2022-09-15T18:56:14.886Z,69.77
2022-09-15T19:00:24.898Z,70.06
2022-09-15T19:04:36.103Z,70.26
2022-09-15T19:08:46.030Z,70.42
2022-09-15T19:12:53.980Z,70.51
2022-09-15T19:17:01.604Z,70.75
2022-09-15T19:21:11.817Z,70.78
2022-09-15T19:25:19.371Z,70.89
2022-09-15T19:29:33.203Z,71.08
2022-09-15T19:33:42.428Z,71.11
2022-09-15T19:37:50.598Z,71.03
2022-09-15T19:41:58.204Z,70.96
2022-09-15T19:46:05.538Z,71.05
2022-09-15T19:50:14.105Z,70.99
2022-09-15T19:54:22.776Z,71.39
2022-09-15T19:58:31.362Z,71.19
2022-09-15T20:02:39.383Z,71.12
2022-09-15T20:06:48.222Z,71.39
2022-09-15T20:10:55.721Z,71.65
2022-09-15T20:15:04.666Z,71.58
2022-09-15T20:19:12.354Z,71.61
2022-09-15T20:23:20.366Z,71.75
2022-09-15T20:27:30.277Z,71.84
2022-09-15T20:31:38.188Z,71.89
2022-09-15T20:35:46.554Z,71.77
2022-09-15T20:39:54.479Z,71.91
2022-09-15T20:44:05.521Z,71.97
2022-09-15T20:48:13.227Z,72.14
2022-09-15T20:52:20.956Z,72.39
2022-09-15T20:56:29.866Z,72.28
2022-09-15T21:00:37.567Z,72.32
2022-09-15T21:04:45.297Z,72.54
2022-09-15T21:08:54.022Z,72.66
2022-09-15T21:13:02.186Z,72.63
2022-09-15T21:17:10.048Z,72.75
2022-09-15T21:21:19.280Z,72.73
2022-09-15T21:25:26.824Z,72.94
2022-09-15T21:29:34.758Z,72.73
2022-09-15T21:33:42.633Z,72.62
2022-09-15T21:37:50.506Z,72.72
2022-09-15T21:41:57.851Z,72.82
2022-09-15T21:46:06.973Z,72.83
2022-09-15T21:50:14.388Z,72.79
2022-09-15T21:54:21.891Z,72.72
2022-09-15T21:58:40.306Z,72.72
2022-09-15T22:02:54.041Z,72.57
2022-09-15T22:07:04.074Z,72.70
2022-09-15T22:11:13.060Z,72.87
2022-09-15T22:15:21.341Z,72.68
2022-09-15T22:19:29.537Z,72.73
2022-09-15T22:23:36.967Z,72.88
2022-09-15T22:27:44.376Z,72.68
2022-09-15T22:31:51.877Z,72.84
2022-09-15T22:35:59.661Z,72.99
2022-09-15T22:40:08.568Z,72.80
2022-09-15T22:44:22.426Z,72.80
2022-09-15T22:48:30.127Z,72.74
2022-09-15T22:52:37.841Z,72.82
2022-09-15T22:56:45.737Z,72.62
2022-09-15T23:00:53.177Z,72.60
2022-09-15T23:05:00.740Z,72.50
2022-09-15T23:09:11.024Z,72.58
2022-09-15T23:13:20.342Z,72.61
2022-09-15T23:17:28.103Z,72.29
2022-09-15T23:21:35.730Z,72.59
2022-09-15T23:25:43.286Z,72.71
2022-09-15T23:29:50.635Z,72.50
2022-09-15T23:33:57.931Z,72.48
2022-09-15T23:38:05.837Z,72.53
2022-09-15T23:42:18.110Z,72.68
2022-09-15T23:46:26.339Z,72.74
2022-09-15T23:50:34.450Z,72.63
2022-09-15T23:54:42.114Z,72.86
2022-09-15T23:58:49.740Z,72.91
